sensor_id;sensor_type;location;lat;lon;timestamp;temperature;humidity
15143;DHT22;7672;50.834;6.286;2023-12-29T00:01:53;12.60;99.90
15143;DHT22;7672;50.834;6.286;2023-12-29T00:04:21;12.60;99.90
15143;DHT22;7672;50.834;6.286;2023-12-29T00:06:48;12.60;99.90
15143;DHT22;7672;50.834;6.286;2023-12-29T00:09:25;12.60;99.90
15143;DHT22;7672;50.834;6.286;2023-12-29T00:11:52;12.60;99.90
15143;DHT22;7672;50.834;6.286;2023-12-29T00:14:21;12.60;99.90
15143;DHT22;7672;50.834;6.286;2023-12-29T00:16:48;12.60;99.90
15143;DHT22;7672;50.834;6.286;2023-12-29T00:19:15;12.60;99.90
15143;DHT22;7672;50.834;6.286;2023-12-29T00:21:42;12.60;99.90
15143;DHT22;7672;50.834;6.286;2023-12-29T00:24:09;12.60;99.90
15143;DHT22;7672;50.834;6.286;2023-12-29T00:26:36;12.60;99.90
15143;DHT22;7672;50.834;6.286;2023-12-29T00:29:03;12.60;99.90
15143;DHT22;7672;50.834;6.286;2023-12-29T00:31:30;12.60;99.90
15143;DHT22;7672;50.834;6.286;2023-12-29T00:33:57;12.60;99.90
15143;DHT22;7672;50.834;6.286;2023-12-29T00:36:24;12.60;99.90
15143;DHT22;7672;50.834;6.286;2023-12-29T00:38:51;12.60;99.90
15143;DHT22;7672;50.834;6.286;2023-12-29T00:41:18;12.60;99.90
15143;DHT22;7672;50.834;6.286;2023-12-29T00:43:45;12.60;99.90
15143;DHT22;7672;50.834;6.286;2023-12-29T00:46:14;12.60;99.90
15143;DHT22;7672;50.834;6.286;2023-12-29T00:48:42;12.60;99.90
15143;DHT22;7672;50.834;6.286;2023-12-29T00:51:09;12.50;99.90
15143;DHT22;7672;50.834;6.286;2023-12-29T00:53:36;12.60;99.90
15143;DHT22;7672;50.834;6.286;2023-12-29T00:56:10;12.60;99.90
15143;DHT22;7672;50.834;6.286;2023-12-29T00:58:38;12.50;99.90
15143;DHT22;7672;50.834;6.286;2023-12-29T01:01:07;12.50;99.90
15143;DHT22;7672;50.834;6.286;2023-12-29T01:03:38;12.50;99.90
15143;DHT22;7672;50.834;6.286;2023-12-29T01:06:06;12.50;99.90
15143;DHT22;7672;50.834;6.286;2023-12-29T01:08:33;12.50;99.90
15143;DHT22;7672;50.834;6.286;2023-12-29T01:11:00;12.50;99.90
15143;DHT22;7672;50.834;6.286;2023-12-29T01:13:27;12.50;99.90
15143;DHT22;7672;50.834;6.286;2023-12-29T01:15:54;12.40;99.90
15143;DHT22;7672;50.834;6.286;2023-12-29T01:18:21;12.40;99.90
15143;DHT22;7672;50.834;6.286;2023-12-29T01:20:48;12.40;99.90
15143;DHT22;7672;50.834;6.286;2023-12-29T01:23:15;12.40;99.90
15143;DHT22;7672;50.834;6.286;2023-12-29T01:25:43;12.40;99.90
15143;DHT22;7672;50.834;6.286;2023-12-29T01:28:10;12.40;99.90
15143;DHT22;7672;50.834;6.286;2023-12-29T01:30:37;12.40;99.90
15143;DHT22;7672;50.834;6.286;2023-12-29T01:33:04;12.40;99.90
15143;DHT22;7672;50.834;6.286;2023-12-29T01:35:31;12.50;99.90
15143;DHT22;7672;50.834;6.286;2023-12-29T01:37:58;12.50;99.90
15143;DHT22;7672;50.834;6.286;2023-12-29T01:40:25;12.50;99.90
15143;DHT22;7672;50.834;6.286;2023-12-29T01:42:52;12.50;99.90
15143;DHT22;7672;50.834;6.286;2023-12-29T01:45:23;12.50;99.90
15143;DHT22;7672;50.834;6.286;2023-12-29T01:47:51;12.50;99.90
15143;DHT22;7672;50.834;6.286;2023-12-29T01:50:20;12.50;99.90
15143;DHT22;7672;50.834;6.286;2023-12-29T01:52:49;12.50;99.90
15143;DHT22;7672;50.834;6.286;2023-12-29T01:55:19;12.50;99.90
15143;DHT22;7672;50.834;6.286;2023-12-29T01:57:48;12.50;99.90
15143;DHT22;7672;50.834;6.286;2023-12-29T02:00:17;12.50;99.90
15143;DHT22;7672;50.834;6.286;2023-12-29T02:02:46;12.50;99.90
15143;DHT22;7672;50.834;6.286;2023-12-29T02:05:14;12.50;99.90
15143;DHT22;7672;50.834;6.286;2023-12-29T02:07:44;12.50;99.90
15143;DHT22;7672;50.834;6.286;2023-12-29T02:10:12;12.50;99.90
15143;DHT22;7672;50.834;6.286;2023-12-29T02:12:42;12.50;99.90
15143;DHT22;7672;50.834;6.286;2023-12-29T02:15:09;12.50;99.90
15143;DHT22;7672;50.834;6.286;2023-12-29T02:17:52;12.50;99.90
15143;DHT22;7672;50.834;6.286;2023-12-29T02:20:25;12.50;99.90
15143;DHT22;7672;50.834;6.286;2023-12-29T02:22:52;12.50;99.90
15143;DHT22;7672;50.834;6.286;2023-12-29T02:25:19;12.50;99.90
15143;DHT22;7672;50.834;6.286;2023-12-29T02:28:10;12.50;99.90
15143;DHT22;7672;50.834;6.286;2023-12-29T02:31:10;12.60;99.90
15143;DHT22;7672;50.834;6.286;2023-12-29T02:33:41;12.60;99.90
15143;DHT22;7672;50.834;6.286;2023-12-29T02:36:10;12.60;99.90
15143;DHT22;7672;50.834;6.286;2023-12-29T02:38:39;12.60;99.90
15143;DHT22;7672;50.834;6.286;2023-12-29T02:41:07;12.60;99.90
15143;DHT22;7672;50.834;6.286;2023-12-29T02:43:34;12.60;99.90
15143;DHT22;7672;50.834;6.286;2023-12-29T02:46:01;12.60;99.90
15143;DHT22;7672;50.834;6.286;2023-12-29T02:48:27;12.60;99.90
15143;DHT22;7672;50.834;6.286;2023-12-29T02:50:54;12.60;99.90
15143;DHT22;7672;50.834;6.286;2023-12-29T02:53:21;12.60;99.90
15143;DHT22;7672;50.834;6.286;2023-12-29T02:55:48;12.70;99.90
15143;DHT22;7672;50.834;6.286;2023-12-29T02:58:15;12.70;99.90
15143;DHT22;7672;50.834;6.286;2023-12-29T03:00:48;13.00;99.90
15143;DHT22;7672;50.834;6.286;2023-12-29T03:03:15;12.70;99.90
15143;DHT22;7672;50.834;6.286;2023-12-29T03:05:42;12.70;99.90
15143;DHT22;7672;50.834;6.286;2023-12-29T03:08:09;12.70;99.90
15143;DHT22;7672;50.834;6.286;2023-12-29T03:10:36;12.80;99.90
15143;DHT22;7672;50.834;6.286;2023-12-29T03:13:03;12.80;99.90
15143;DHT22;7672;50.834;6.286;2023-12-29T03:15:31;12.80;99.90
15143;DHT22;7672;50.834;6.286;2023-12-29T03:17:58;12.80;99.90
15143;DHT22;7672;50.834;6.286;2023-12-29T03:20:26;12.80;99.90
15143;DHT22;7672;50.834;6.286;2023-12-29T03:22:54;12.80;99.90
15143;DHT22;7672;50.834;6.286;2023-12-29T03:25:22;12.70;99.90
15143;DHT22;7672;50.834;6.286;2023-12-29T03:27:49;12.70;99.90
15143;DHT22;7672;50.834;6.286;2023-12-29T03:30:16;12.70;99.90
15143;DHT22;7672;50.834;6.286;2023-12-29T03:32:43;12.70;99.90
15143;DHT22;7672;50.834;6.286;2023-12-29T03:35:11;12.60;99.90
15143;DHT22;7672;50.834;6.286;2023-12-29T03:37:38;12.60;99.90
15143;DHT22;7672;50.834;6.286;2023-12-29T03:40:07;12.60;99.90
15143;DHT22;7672;50.834;6.286;2023-12-29T03:42:34;12.50;99.90
15143;DHT22;7672;50.834;6.286;2023-12-29T03:45:01;12.50;99.90
15143;DHT22;7672;50.834;6.286;2023-12-29T03:47:28;12.50;99.90
15143;DHT22;7672;50.834;6.286;2023-12-29T03:49:57;12.70;99.90
15143;DHT22;7672;50.834;6.286;2023-12-29T03:52:24;12.50;99.90
15143;DHT22;7672;50.834;6.286;2023-12-29T03:54:51;12.50;99.90
15143;DHT22;7672;50.834;6.286;2023-12-29T03:57:18;12.50;99.90
15143;DHT22;7672;50.834;6.286;2023-12-29T03:59:45;12.50;99.90
15143;DHT22;7672;50.834;6.286;2023-12-29T04:02:12;12.50;99.90
15143;DHT22;7672;50.834;6.286;2023-12-29T04:04:39;12.50;99.90
15143;DHT22;7672;50.834;6.286;2023-12-29T04:07:06;12.50;99.90
15143;DHT22;7672;50.834;6.286;2023-12-29T04:09:33;12.60;99.90
15143;DHT22;7672;50.834;6.286;2023-12-29T04:12:00;12.60;99.90
15143;DHT22;7672;50.834;6.286;2023-12-29T04:14:27;12.60;99.90
15143;DHT22;7672;50.834;6.286;2023-12-29T04:16:54;12.60;99.90
15143;DHT22;7672;50.834;6.286;2023-12-29T04:19:21;12.60;99.90
15143;DHT22;7672;50.834;6.286;2023-12-29T04:21:48;12.80;99.90
15143;DHT22;7672;50.834;6.286;2023-12-29T04:24:15;12.70;99.90
15143;DHT22;7672;50.834;6.286;2023-12-29T04:26:42;12.70;99.90
15143;DHT22;7672;50.834;6.286;2023-12-29T04:29:09;12.70;99.90
15143;DHT22;7672;50.834;6.286;2023-12-29T04:31:35;12.80;99.90
15143;DHT22;7672;50.834;6.286;2023-12-29T04:34:02;12.80;99.90
15143;DHT22;7672;50.834;6.286;2023-12-29T04:36:30;12.80;99.90
15143;DHT22;7672;50.834;6.286;2023-12-29T04:38:56;12.80;99.90
15143;DHT22;7672;50.834;6.286;2023-12-29T04:41:23;12.80;99.90
15143;DHT22;7672;50.834;6.286;2023-12-29T04:43:50;12.80;99.90
15143;DHT22;7672;50.834;6.286;2023-12-29T04:46:17;12.80;99.90
15143;DHT22;7672;50.834;6.286;2023-12-29T04:48:44;12.90;99.90
15143;DHT22;7672;50.834;6.286;2023-12-29T04:51:11;12.90;99.90
15143;DHT22;7672;50.834;6.286;2023-12-29T04:53:38;12.90;99.90
15143;DHT22;7672;50.834;6.286;2023-12-29T04:56:06;12.90;99.90
15143;DHT22;7672;50.834;6.286;2023-12-29T04:58:33;12.90;99.90
15143;DHT22;7672;50.834;6.286;2023-12-29T05:01:00;12.90;99.90
15143;DHT22;7672;50.834;6.286;2023-12-29T05:03:26;12.90;99.90
15143;DHT22;7672;50.834;6.286;2023-12-29T05:05:53;12.90;99.90
15143;DHT22;7672;50.834;6.286;2023-12-29T05:08:20;12.90;99.90
15143;DHT22;7672;50.834;6.286;2023-12-29T05:10:47;12.90;99.90
15143;DHT22;7672;50.834;6.286;2023-12-29T05:13:14;12.90;99.90
15143;DHT22;7672;50.834;6.286;2023-12-29T05:15:41;12.90;99.90
15143;DHT22;7672;50.834;6.286;2023-12-29T05:18:08;12.90;99.90
15143;DHT22;7672;50.834;6.286;2023-12-29T05:20:37;12.90;99.90
15143;DHT22;7672;50.834;6.286;2023-12-29T05:23:03;12.80;99.90
15143;DHT22;7672;50.834;6.286;2023-12-29T05:25:30;12.80;99.90
15143;DHT22;7672;50.834;6.286;2023-12-29T05:27:57;12.80;99.90
15143;DHT22;7672;50.834;6.286;2023-12-29T05:30:25;12.80;99.90
15143;DHT22;7672;50.834;6.286;2023-12-29T05:32:53;12.80;99.90
15143;DHT22;7672;50.834;6.286;2023-12-29T05:35:20;12.80;99.90
15143;DHT22;7672;50.834;6.286;2023-12-29T05:37:47;12.80;99.90
15143;DHT22;7672;50.834;6.286;2023-12-29T05:40:14;12.80;99.90
15143;DHT22;7672;50.834;6.286;2023-12-29T05:42:41;12.80;99.90
15143;DHT22;7672;50.834;6.286;2023-12-29T05:45:09;12.80;99.90
15143;DHT22;7672;50.834;6.286;2023-12-29T05:47:35;12.80;99.90
15143;DHT22;7672;50.834;6.286;2023-12-29T05:50:03;12.80;99.90
15143;DHT22;7672;50.834;6.286;2023-12-29T05:52:30;12.70;99.90
15143;DHT22;7672;50.834;6.286;2023-12-29T05:54:57;12.70;99.90
15143;DHT22;7672;50.834;6.286;2023-12-29T05:57:24;12.70;99.90
15143;DHT22;7672;50.834;6.286;2023-12-29T05:59:51;12.70;99.90
15143;DHT22;7672;50.834;6.286;2023-12-29T06:02:18;12.70;99.90
15143;DHT22;7672;50.834;6.286;2023-12-29T06:04:45;12.70;99.90
15143;DHT22;7672;50.834;6.286;2023-12-29T06:07:11;12.70;99.90
15143;DHT22;7672;50.834;6.286;2023-12-29T06:09:38;12.60;99.90
15143;DHT22;7672;50.834;6.286;2023-12-29T06:12:05;12.60;99.90
15143;DHT22;7672;50.834;6.286;2023-12-29T06:14:32;12.60;99.90
15143;DHT22;7672;50.834;6.286;2023-12-29T06:16:59;12.60;99.90
15143;DHT22;7672;50.834;6.286;2023-12-29T06:19:26;12.60;99.90
15143;DHT22;7672;50.834;6.286;2023-12-29T06:21:55;12.60;99.90
15143;DHT22;7672;50.834;6.286;2023-12-29T06:24:22;12.60;99.90
15143;DHT22;7672;50.834;6.286;2023-12-29T06:26:49;12.60;99.90
15143;DHT22;7672;50.834;6.286;2023-12-29T06:29:16;12.50;99.90
15143;DHT22;7672;50.834;6.286;2023-12-29T06:31:43;12.50;99.90
15143;DHT22;7672;50.834;6.286;2023-12-29T06:34:10;12.50;99.90
15143;DHT22;7672;50.834;6.286;2023-12-29T06:36:37;12.60;99.90
15143;DHT22;7672;50.834;6.286;2023-12-29T06:39:04;12.50;99.90
15143;DHT22;7672;50.834;6.286;2023-12-29T06:41:31;12.50;99.90
15143;DHT22;7672;50.834;6.286;2023-12-29T06:43:58;12.50;99.90
15143;DHT22;7672;50.834;6.286;2023-12-29T06:46:25;12.50;99.90
15143;DHT22;7672;50.834;6.286;2023-12-29T06:48:52;12.50;99.90
15143;DHT22;7672;50.834;6.286;2023-12-29T06:51:19;12.50;99.90
15143;DHT22;7672;50.834;6.286;2023-12-29T06:53:46;12.50;99.90
15143;DHT22;7672;50.834;6.286;2023-12-29T06:56:15;12.50;99.90
15143;DHT22;7672;50.834;6.286;2023-12-29T06:58:42;12.50;99.90
15143;DHT22;7672;50.834;6.286;2023-12-29T07:01:09;12.50;99.90
15143;DHT22;7672;50.834;6.286;2023-12-29T07:03:36;12.50;99.90
15143;DHT22;7672;50.834;6.286;2023-12-29T07:06:03;12.40;99.90
15143;DHT22;7672;50.834;6.286;2023-12-29T07:08:30;12.50;99.90
15143;DHT22;7672;50.834;6.286;2023-12-29T07:10:57;12.50;99.90
15143;DHT22;7672;50.834;6.286;2023-12-29T07:13:25;12.50;99.90
15143;DHT22;7672;50.834;6.286;2023-12-29T07:15:52;12.50;99.90
15143;DHT22;7672;50.834;6.286;2023-12-29T07:18:19;12.50;99.90
15143;DHT22;7672;50.834;6.286;2023-12-29T07:20:46;12.50;99.90
15143;DHT22;7672;50.834;6.286;2023-12-29T07:23:13;12.50;99.90
15143;DHT22;7672;50.834;6.286;2023-12-29T07:25:40;12.50;99.90
15143;DHT22;7672;50.834;6.286;2023-12-29T07:28:06;12.50;99.90
15143;DHT22;7672;50.834;6.286;2023-12-29T07:30:33;12.50;99.90
15143;DHT22;7672;50.834;6.286;2023-12-29T07:33:00;12.50;99.90
15143;DHT22;7672;50.834;6.286;2023-12-29T07:35:29;12.60;99.90
15143;DHT22;7672;50.834;6.286;2023-12-29T07:37:56;12.60;99.90
15143;DHT22;7672;50.834;6.286;2023-12-29T07:40:24;12.50;99.90
15143;DHT22;7672;50.834;6.286;2023-12-29T07:42:51;12.50;99.90
15143;DHT22;7672;50.834;6.286;2023-12-29T07:45:17;12.50;99.90
15143;DHT22;7672;50.834;6.286;2023-12-29T07:47:44;12.50;99.90
15143;DHT22;7672;50.834;6.286;2023-12-29T07:50:11;12.50;99.90
15143;DHT22;7672;50.834;6.286;2023-12-29T07:52:38;12.40;99.90
15143;DHT22;7672;50.834;6.286;2023-12-29T07:55:05;12.40;99.90
15143;DHT22;7672;50.834;6.286;2023-12-29T07:57:32;12.30;99.90
15143;DHT22;7672;50.834;6.286;2023-12-29T08:00:00;12.30;99.90
15143;DHT22;7672;50.834;6.286;2023-12-29T08:02:37;12.20;99.90
15143;DHT22;7672;50.834;6.286;2023-12-29T08:05:04;12.20;99.90
15143;DHT22;7672;50.834;6.286;2023-12-29T08:07:31;12.20;99.90
15143;DHT22;7672;50.834;6.286;2023-12-29T08:09:59;12.10;99.90
15143;DHT22;7672;50.834;6.286;2023-12-29T08:12:26;12.00;99.90
15143;DHT22;7672;50.834;6.286;2023-12-29T08:14:54;12.00;99.90
15143;DHT22;7672;50.834;6.286;2023-12-29T08:17:22;12.00;99.90
15143;DHT22;7672;50.834;6.286;2023-12-29T08:19:48;12.00;99.90
15143;DHT22;7672;50.834;6.286;2023-12-29T08:22:16;12.00;99.90
15143;DHT22;7672;50.834;6.286;2023-12-29T08:24:43;12.00;99.90
15143;DHT22;7672;50.834;6.286;2023-12-29T08:27:12;11.90;99.90
15143;DHT22;7672;50.834;6.286;2023-12-29T08:29:39;11.90;99.90
15143;DHT22;7672;50.834;6.286;2023-12-29T08:32:07;11.90;99.90
15143;DHT22;7672;50.834;6.286;2023-12-29T08:34:34;11.90;99.90
15143;DHT22;7672;50.834;6.286;2023-12-29T08:37:01;11.90;99.90
15143;DHT22;7672;50.834;6.286;2023-12-29T08:39:28;11.90;99.90
15143;DHT22;7672;50.834;6.286;2023-12-29T08:41:55;11.90;99.90
15143;DHT22;7672;50.834;6.286;2023-12-29T08:44:25;11.90;99.90
15143;DHT22;7672;50.834;6.286;2023-12-29T08:46:51;11.90;99.90
15143;DHT22;7672;50.834;6.286;2023-12-29T08:49:18;11.90;99.90
15143;DHT22;7672;50.834;6.286;2023-12-29T08:51:45;11.90;99.90
15143;DHT22;7672;50.834;6.286;2023-12-29T08:54:12;12.00;99.90
15143;DHT22;7672;50.834;6.286;2023-12-29T08:56:39;12.00;99.90
15143;DHT22;7672;50.834;6.286;2023-12-29T08:59:06;12.00;99.90
15143;DHT22;7672;50.834;6.286;2023-12-29T09:01:33;12.00;99.90
15143;DHT22;7672;50.834;6.286;2023-12-29T09:04:00;12.00;99.90
15143;DHT22;7672;50.834;6.286;2023-12-29T09:06:27;12.10;99.90
15143;DHT22;7672;50.834;6.286;2023-12-29T09:08:54;12.10;99.90
15143;DHT22;7672;50.834;6.286;2023-12-29T09:11:21;12.10;99.90
15143;DHT22;7672;50.834;6.286;2023-12-29T09:13:48;12.10;99.90
15143;DHT22;7672;50.834;6.286;2023-12-29T09:16:15;12.10;99.90
15143;DHT22;7672;50.834;6.286;2023-12-29T09:18:42;12.10;99.90
15143;DHT22;7672;50.834;6.286;2023-12-29T09:21:09;12.10;99.90
15143;DHT22;7672;50.834;6.286;2023-12-29T09:23:36;12.10;99.90
15143;DHT22;7672;50.834;6.286;2023-12-29T09:26:05;12.20;99.90
15143;DHT22;7672;50.834;6.286;2023-12-29T09:28:34;12.20;99.90
15143;DHT22;7672;50.834;6.286;2023-12-29T09:31:01;12.20;99.90
15143;DHT22;7672;50.834;6.286;2023-12-29T09:33:28;12.20;99.90
15143;DHT22;7672;50.834;6.286;2023-12-29T09:35:55;12.20;99.90
15143;DHT22;7672;50.834;6.286;2023-12-29T09:38:22;12.20;99.90
15143;DHT22;7672;50.834;6.286;2023-12-29T09:40:50;12.20;99.90
15143;DHT22;7672;50.834;6.286;2023-12-29T09:43:18;12.20;99.90
15143;DHT22;7672;50.834;6.286;2023-12-29T09:45:45;12.20;99.90
15143;DHT22;7672;50.834;6.286;2023-12-29T09:48:16;12.30;99.90
15143;DHT22;7672;50.834;6.286;2023-12-29T09:50:44;12.30;99.90
15143;DHT22;7672;50.834;6.286;2023-12-29T09:53:11;12.30;99.90
15143;DHT22;7672;50.834;6.286;2023-12-29T09:55:40;12.30;99.90
15143;DHT22;7672;50.834;6.286;2023-12-29T09:58:10;12.30;99.90
15143;DHT22;7672;50.834;6.286;2023-12-29T10:00:39;12.40;99.90
15143;DHT22;7672;50.834;6.286;2023-12-29T10:03:08;12.40;99.90
15143;DHT22;7672;50.834;6.286;2023-12-29T10:05:35;12.40;99.90
15143;DHT22;7672;50.834;6.286;2023-12-29T10:08:03;12.40;99.90
15143;DHT22;7672;50.834;6.286;2023-12-29T10:10:33;12.50;99.90
15143;DHT22;7672;50.834;6.286;2023-12-29T10:13:03;12.60;99.90
15143;DHT22;7672;50.834;6.286;2023-12-29T10:15:42;12.70;99.90
15143;DHT22;7672;50.834;6.286;2023-12-29T10:18:32;12.80;99.90
15143;DHT22;7672;50.834;6.286;2023-12-29T10:21:29;12.90;99.90
15143;DHT22;7672;50.834;6.286;2023-12-29T10:24:08;12.90;99.90
15143;DHT22;7672;50.834;6.286;2023-12-29T10:26:37;13.00;99.90
15143;DHT22;7672;50.834;6.286;2023-12-29T10:29:05;13.00;99.90
15143;DHT22;7672;50.834;6.286;2023-12-29T10:31:31;13.00;99.90
15143;DHT22;7672;50.834;6.286;2023-12-29T10:36:48;13.00;99.90
15143;DHT22;7672;50.834;6.286;2023-12-29T10:39:16;13.00;99.90
15143;DHT22;7672;50.834;6.286;2023-12-29T10:41:45;13.00;99.90
15143;DHT22;7672;50.834;6.286;2023-12-29T10:44:12;13.10;99.90
15143;DHT22;7672;50.834;6.286;2023-12-29T10:46:42;13.00;99.90
15143;DHT22;7672;50.834;6.286;2023-12-29T10:49:13;13.10;99.90
15143;DHT22;7672;50.834;6.286;2023-12-29T10:51:43;13.10;99.90
15143;DHT22;7672;50.834;6.286;2023-12-29T10:54:19;13.10;99.90
15143;DHT22;7672;50.834;6.286;2023-12-29T10:57:02;13.10;99.90
15143;DHT22;7672;50.834;6.286;2023-12-29T10:59:29;13.10;99.90
15143;DHT22;7672;50.834;6.286;2023-12-29T11:01:56;13.10;99.90
15143;DHT22;7672;50.834;6.286;2023-12-29T11:04:23;13.20;99.90
15143;DHT22;7672;50.834;6.286;2023-12-29T11:06:50;13.20;99.90
15143;DHT22;7672;50.834;6.286;2023-12-29T11:09:31;13.30;99.90
15143;DHT22;7672;50.834;6.286;2023-12-29T11:12:02;13.30;99.90
15143;DHT22;7672;50.834;6.286;2023-12-29T11:14:32;13.40;99.90
15143;DHT22;7672;50.834;6.286;2023-12-29T11:17:00;13.40;99.90
15143;DHT22;7672;50.834;6.286;2023-12-29T11:19:27;13.50;99.90
15143;DHT22;7672;50.834;6.286;2023-12-29T11:21:56;13.60;99.90
15143;DHT22;7672;50.834;6.286;2023-12-29T11:24:23;13.60;99.90
15143;DHT22;7672;50.834;6.286;2023-12-29T11:27:05;13.70;99.90
15143;DHT22;7672;50.834;6.286;2023-12-29T11:29:34;13.80;99.90
15143;DHT22;7672;50.834;6.286;2023-12-29T11:32:04;13.80;99.90
15143;DHT22;7672;50.834;6.286;2023-12-29T11:34:42;13.90;99.90
15143;DHT22;7672;50.834;6.286;2023-12-29T11:40:02;13.90;99.90
15143;DHT22;7672;50.834;6.286;2023-12-29T11:42:34;14.00;99.90
15143;DHT22;7672;50.834;6.286;2023-12-29T11:45:27;14.10;99.90
15143;DHT22;7672;50.834;6.286;2023-12-29T11:47:55;14.10;99.90
15143;DHT22;7672;50.834;6.286;2023-12-29T11:50:28;14.20;99.90
15143;DHT22;7672;50.834;6.286;2023-12-29T11:52:55;14.20;99.90
15143;DHT22;7672;50.834;6.286;2023-12-29T11:55:34;14.20;99.90
15143;DHT22;7672;50.834;6.286;2023-12-29T11:58:03;14.20;99.90
15143;DHT22;7672;50.834;6.286;2023-12-29T12:00:45;14.30;99.90
15143;DHT22;7672;50.834;6.286;2023-12-29T12:05:47;14.40;99.90
15143;DHT22;7672;50.834;6.286;2023-12-29T12:08:41;14.40;99.90
15143;DHT22;7672;50.834;6.286;2023-12-29T12:14:43;14.20;99.90
15143;DHT22;7672;50.834;6.286;2023-12-29T12:17:12;14.20;99.90
15143;DHT22;7672;50.834;6.286;2023-12-29T12:19:57;14.50;99.90
15143;DHT22;7672;50.834;6.286;2023-12-29T12:22:26;14.60;99.90
15143;DHT22;7672;50.834;6.286;2023-12-29T12:24:57;14.10;99.90
15143;DHT22;7672;50.834;6.286;2023-12-29T12:27:29;14.40;99.90
15143;DHT22;7672;50.834;6.286;2023-12-29T12:29:58;14.10;99.90
15143;DHT22;7672;50.834;6.286;2023-12-29T12:32:29;14.50;99.90
15143;DHT22;7672;50.834;6.286;2023-12-29T12:34:56;14.00;99.90
15143;DHT22;7672;50.834;6.286;2023-12-29T12:37:28;14.00;99.90
15143;DHT22;7672;50.834;6.286;2023-12-29T12:39:55;14.00;99.90
15143;DHT22;7672;50.834;6.286;2023-12-29T12:42:23;13.90;99.90
15143;DHT22;7672;50.834;6.286;2023-12-29T12:45:04;13.90;99.90
15143;DHT22;7672;50.834;6.286;2023-12-29T12:48:00;13.90;99.90
15143;DHT22;7672;50.834;6.286;2023-12-29T12:50:28;13.90;99.90
15143;DHT22;7672;50.834;6.286;2023-12-29T12:52:56;13.90;99.90
15143;DHT22;7672;50.834;6.286;2023-12-29T12:55:25;13.80;99.90
15143;DHT22;7672;50.834;6.286;2023-12-29T12:57:54;14.10;99.90
15143;DHT22;7672;50.834;6.286;2023-12-29T13:00:21;13.80;99.90
15143;DHT22;7672;50.834;6.286;2023-12-29T13:02:49;13.70;99.90
15143;DHT22;7672;50.834;6.286;2023-12-29T13:05:16;13.70;99.90
15143;DHT22;7672;50.834;6.286;2023-12-29T13:07:45;13.70;99.90
15143;DHT22;7672;50.834;6.286;2023-12-29T13:10:12;13.70;99.90
15143;DHT22;7672;50.834;6.286;2023-12-29T13:12:39;13.70;99.90
15143;DHT22;7672;50.834;6.286;2023-12-29T13:15:08;13.60;99.90
15143;DHT22;7672;50.834;6.286;2023-12-29T13:17:36;13.60;99.90
15143;DHT22;7672;50.834;6.286;2023-12-29T13:20:03;13.60;99.90
15143;DHT22;7672;50.834;6.286;2023-12-29T13:22:31;13.60;99.90
15143;DHT22;7672;50.834;6.286;2023-12-29T13:24:59;13.60;99.90
15143;DHT22;7672;50.834;6.286;2023-12-29T13:27:26;13.60;99.90
15143;DHT22;7672;50.834;6.286;2023-12-29T13:29:53;13.60;99.90
15143;DHT22;7672;50.834;6.286;2023-12-29T13:32:22;13.50;99.90
15143;DHT22;7672;50.834;6.286;2023-12-29T13:35:05;13.40;99.90
15143;DHT22;7672;50.834;6.286;2023-12-29T13:40:47;13.30;99.90
15143;DHT22;7672;50.834;6.286;2023-12-29T13:43:20;13.30;99.90
15143;DHT22;7672;50.834;6.286;2023-12-29T13:45:48;13.20;99.90
15143;DHT22;7672;50.834;6.286;2023-12-29T13:48:16;13.20;99.90
15143;DHT22;7672;50.834;6.286;2023-12-29T13:50:47;13.20;99.90
15143;DHT22;7672;50.834;6.286;2023-12-29T13:53:18;13.10;99.90
15143;DHT22;7672;50.834;6.286;2023-12-29T13:55:45;13.00;99.90
15143;DHT22;7672;50.834;6.286;2023-12-29T13:58:13;13.00;99.90
15143;DHT22;7672;50.834;6.286;2023-12-29T14:00:40;13.00;99.90
15143;DHT22;7672;50.834;6.286;2023-12-29T14:03:22;13.00;99.90
15143;DHT22;7672;50.834;6.286;2023-12-29T14:05:56;13.00;99.90
15143;DHT22;7672;50.834;6.286;2023-12-29T14:08:46;13.00;99.90
15143;DHT22;7672;50.834;6.286;2023-12-29T14:11:14;12.90;99.90
15143;DHT22;7672;50.834;6.286;2023-12-29T14:13:45;12.90;99.90
15143;DHT22;7672;50.834;6.286;2023-12-29T14:16:12;12.90;99.90
15143;DHT22;7672;50.834;6.286;2023-12-29T14:21:30;12.90;99.90
15143;DHT22;7672;50.834;6.286;2023-12-29T14:24:13;12.90;99.90
15143;DHT22;7672;50.834;6.286;2023-12-29T14:26:43;12.90;99.90
15143;DHT22;7672;50.834;6.286;2023-12-29T14:29:20;12.80;99.90
15143;DHT22;7672;50.834;6.286;2023-12-29T14:31:48;12.80;99.90
15143;DHT22;7672;50.834;6.286;2023-12-29T14:34:17;12.80;99.90
15143;DHT22;7672;50.834;6.286;2023-12-29T14:36:45;12.80;99.90
15143;DHT22;7672;50.834;6.286;2023-12-29T14:39:13;12.80;99.90
15143;DHT22;7672;50.834;6.286;2023-12-29T14:41:39;12.80;99.90
15143;DHT22;7672;50.834;6.286;2023-12-29T14:44:06;12.80;99.90
15143;DHT22;7672;50.834;6.286;2023-12-29T14:46:34;12.80;99.90
15143;DHT22;7672;50.834;6.286;2023-12-29T14:49:03;12.80;99.90
15143;DHT22;7672;50.834;6.286;2023-12-29T14:51:30;12.60;99.90
15143;DHT22;7672;50.834;6.286;2023-12-29T14:53:57;12.80;99.90
15143;DHT22;7672;50.834;6.286;2023-12-29T14:56:24;12.70;99.90
15143;DHT22;7672;50.834;6.286;2023-12-29T14:58:51;12.70;99.90
15143;DHT22;7672;50.834;6.286;2023-12-29T15:01:18;12.80;99.90
15143;DHT22;7672;50.834;6.286;2023-12-29T15:03:45;12.70;99.90
15143;DHT22;7672;50.834;6.286;2023-12-29T15:06:12;12.70;99.90
15143;DHT22;7672;50.834;6.286;2023-12-29T15:08:39;12.70;99.90
15143;DHT22;7672;50.834;6.286;2023-12-29T15:11:06;12.70;99.90
15143;DHT22;7672;50.834;6.286;2023-12-29T15:13:34;12.70;99.90
15143;DHT22;7672;50.834;6.286;2023-12-29T15:16:02;12.70;99.90
15143;DHT22;7672;50.834;6.286;2023-12-29T15:18:30;12.70;99.90
15143;DHT22;7672;50.834;6.286;2023-12-29T15:20:58;12.70;99.90
15143;DHT22;7672;50.834;6.286;2023-12-29T15:23:25;12.70;99.90
15143;DHT22;7672;50.834;6.286;2023-12-29T15:25:54;12.60;99.90
15143;DHT22;7672;50.834;6.286;2023-12-29T15:28:21;12.60;99.90
15143;DHT22;7672;50.834;6.286;2023-12-29T15:30:49;12.60;99.90
15143;DHT22;7672;50.834;6.286;2023-12-29T15:33:17;12.60;99.90
15143;DHT22;7672;50.834;6.286;2023-12-29T15:35:44;12.60;99.90
15143;DHT22;7672;50.834;6.286;2023-12-29T15:38:11;12.60;99.90
15143;DHT22;7672;50.834;6.286;2023-12-29T15:40:38;12.50;99.90
15143;DHT22;7672;50.834;6.286;2023-12-29T15:43:05;12.50;99.90
15143;DHT22;7672;50.834;6.286;2023-12-29T15:45:34;12.50;99.90
15143;DHT22;7672;50.834;6.286;2023-12-29T15:48:02;12.50;99.90
15143;DHT22;7672;50.834;6.286;2023-12-29T15:50:30;12.50;99.90
15143;DHT22;7672;50.834;6.286;2023-12-29T15:52:57;12.50;99.90
15143;DHT22;7672;50.834;6.286;2023-12-29T15:55:24;12.50;99.90
15143;DHT22;7672;50.834;6.286;2023-12-29T15:57:51;12.50;99.90
15143;DHT22;7672;50.834;6.286;2023-12-29T16:00:18;12.50;99.90
15143;DHT22;7672;50.834;6.286;2023-12-29T16:02:45;12.50;99.90
15143;DHT22;7672;50.834;6.286;2023-12-29T16:05:12;12.50;99.90
15143;DHT22;7672;50.834;6.286;2023-12-29T16:07:39;12.50;99.90
15143;DHT22;7672;50.834;6.286;2023-12-29T16:10:06;12.50;99.90
15143;DHT22;7672;50.834;6.286;2023-12-29T16:12:35;12.50;99.90